Time;durP1;ratioP1;P1;durP2;ratioP2;P2;SDS_P1;SDS_P2;PMS_P1;PMS_P2;Temp;Humidity;BMP_temperature;BMP_pressure;BME280_temperature;BME280_humidity;BME280_pressure;Samples;Min_cycle;Max_cycle;Signal;HPM_P1;HPM_P2
2023/10/19 00:01:17;;;;;;;16.50;9.10;;;11.50;99.90;;;;;;5093206;28;20096;-83
2023/10/19 00:03:44;;;;;;;16.05;8.93;;;11.60;99.90;;;;;;5093605;28;20446;-84
2023/10/19 00:06:11;;;;;;;17.60;9.02;;;11.60;99.90;;;;;;5094649;28;20028;-84
2023/10/19 00:08:43;;;;;;;16.02;8.82;;;11.60;99.90;;;;;;5093180;28;20024;-85
2023/10/19 00:11:10;;;;;;;18.67;9.10;;;11.60;99.90;;;;;;5094798;28;20024;-85
2023/10/19 00:13:39;;;;;;;17.40;8.80;;;11.70;99.90;;;;;;5093039;28;20028;-85
2023/10/19 00:16:16;;;;;;;18.33;9.02;;;11.70;99.90;;;;;;5092981;28;20043;-85
2023/10/19 00:18:43;;;;;;;16.50;9.27;;;11.70;99.90;;;;;;5093660;28;20024;-85
2023/10/19 00:21:23;;;;;;;15.52;8.55;;;11.70;99.90;;;;;;5093386;28;20081;-83
2023/10/19 00:23:57;;;;;;;15.45;8.73;;;11.70;99.90;;;;;;5093318;28;20354;-83
2023/10/19 00:26:26;;;;;;;14.20;8.43;;;11.70;99.90;;;;;;5093353;28;20542;-83
2023/10/19 00:28:55;;;;;;;16.80;9.32;;;11.70;99.90;;;;;;5093096;28;20020;-84
2023/10/19 00:31:27;;;;;;;14.32;8.13;;;11.70;99.90;;;;;;5092647;28;20411;-83
2023/10/19 00:33:54;;;;;;;17.70;8.80;;;11.80;99.90;;;;;;5093625;28;20062;-84
2023/10/19 00:36:20;;;;;;;18.42;9.52;;;11.80;99.90;;;;;;5091950;28;20058;-83
2023/10/19 00:41:22;;;;;;;15.40;8.63;;;11.80;99.90;;;;;;5093449;28;20023;-82
2023/10/19 00:43:57;;;;;;;15.23;9.32;;;11.80;99.90;;;;;;5093277;28;20029;-85
2023/10/19 00:46:26;;;;;;;17.20;8.98;;;11.90;99.90;;;;;;5093107;28;20089;-85
2023/10/19 00:49:01;;;;;;;17.33;8.57;;;11.90;99.90;;;;;;5092840;28;20469;-85
2023/10/19 00:54:08;;;;;;;17.73;9.48;;;11.90;99.90;;;;;;5093888;28;20035;-85
2023/10/19 00:56:35;;;;;;;15.75;9.10;;;11.90;99.90;;;;;;5092533;28;20028;-84
2023/10/19 00:59:14;;;;;;;14.73;8.50;;;11.90;99.90;;;;;;5093917;28;20107;-85
2023/10/19 01:01:47;;;;;;;16.02;9.25;;;11.90;99.90;;;;;;5092418;28;20095;-85
2023/10/19 01:04:32;;;;;;;14.73;8.50;;;11.90;99.90;;;;;;5093158;28;20489;-84
2023/10/19 01:07:07;;;;;;;13.48;8.70;;;11.90;99.90;;;;;;5093891;28;20028;-85
2023/10/19 01:09:36;;;;;;;15.98;9.13;;;11.90;99.90;;;;;;5092344;28;20430;-85
2023/10/19 01:12:21;;;;;;;13.35;8.55;;;11.80;99.90;;;;;;5092741;28;20055;-85
2023/10/19 01:15:17;;;;;;;14.98;8.60;;;11.90;99.90;;;;;;5092793;28;20039;-84
2023/10/19 01:17:45;;;;;;;13.18;7.93;;;11.90;99.90;;;;;;5086192;28;20048;-84
2023/10/19 01:20:23;;;;;;;18.02;8.13;;;11.90;99.90;;;;;;5092362;28;20032;-83
2023/10/19 01:23:20;;;;;;;15.80;8.00;;;11.90;99.90;;;;;;5092671;28;20020;-85
2023/10/19 01:28:28;;;;;;;14.68;7.65;;;12.00;99.90;;;;;;5093163;28;20028;-84
2023/10/19 01:30:54;;;;;;;14.75;8.25;;;12.00;99.90;;;;;;5092913;28;20028;-84
2023/10/19 01:33:22;;;;;;;11.93;7.63;;;12.00;99.90;;;;;;5091849;28;20031;-82
2023/10/19 01:38:33;;;;;;;14.07;8.40;;;12.00;99.90;;;;;;5093157;28;20509;-83
2023/10/19 01:41:00;;;;;;;14.60;7.70;;;12.00;99.90;;;;;;5092326;28;20024;-83
2023/10/19 01:43:32;;;;;;;12.73;8.15;;;12.00;99.90;;;;;;5091853;28;20423;-83
2023/10/19 01:46:05;;;;;;;15.35;8.48;;;12.10;99.90;;;;;;5092106;28;20067;-83
2023/10/19 01:48:34;;;;;;;14.65;8.60;;;12.00;99.90;;;;;;5091784;28;20032;-83
2023/10/19 01:51:05;;;;;;;12.52;7.13;;;12.00;99.90;;;;;;5092267;28;20077;-83
2023/10/19 01:53:36;;;;;;;13.73;7.55;;;12.10;99.90;;;;;;5092702;28;20020;-83
2023/10/19 01:56:05;;;;;;;16.08;8.75;;;12.10;99.90;;;;;;5092298;28;20036;-83
2023/10/19 01:58:36;;;;;;;14.10;8.25;;;12.00;99.90;;;;;;5093524;28;20059;-83
2023/10/19 02:01:07;;;;;;;11.68;7.70;;;12.00;99.90;;;;;;5096280;28;20073;-83
2023/10/19 02:03:33;;;;;;;14.02;8.30;;;12.00;99.90;;;;;;5096825;28;20038;-83
2023/10/19 02:05:59;;;;;;;16.92;8.30;;;12.00;99.90;;;;;;5095812;28;20040;-83
2023/10/19 02:08:28;;;;;;;12.52;8.00;;;12.00;99.90;;;;;;5095232;28;20511;-82
2023/10/19 02:10:53;;;;;;;12.88;7.35;;;12.10;99.90;;;;;;5096872;28;20469;-83
2023/10/19 02:13:21;;;;;;;16.90;7.82;;;12.10;99.90;;;;;;5096626;28;20028;-83
2023/10/19 02:15:46;;;;;;;12.55;7.78;;;12.00;99.90;;;;;;5095636;28;20043;-83
2023/10/19 02:18:12;;;;;;;12.32;7.45;;;12.10;99.90;;;;;;5095507;28;20028;-83
2023/10/19 02:20:41;;;;;;;13.45;7.60;;;12.10;99.90;;;;;;5094931;28;20162;-83
2023/10/19 02:23:07;;;;;;;13.48;7.88;;;12.10;99.90;;;;;;5095619;28;20024;-83
2023/10/19 02:25:37;;;;;;;11.65;7.30;;;12.10;99.90;;;;;;5095909;28;20024;-83
2023/10/19 02:28:06;;;;;;;12.70;7.18;;;12.10;99.90;;;;;;5096296;28;20511;-83
2023/10/19 02:30:33;;;;;;;14.90;8.02;;;12.10;99.90;;;;;;5095878;28;20020;-83
2023/10/19 02:33:00;;;;;;;12.90;7.70;;;12.10;99.90;;;;;;5096282;28;20051;-82
2023/10/19 02:35:27;;;;;;;14.63;7.35;;;12.10;99.90;;;;;;5094229;28;20131;-82
2023/10/19 02:37:53;;;;;;;13.73;7.57;;;12.10;99.90;;;;;;5095329;28;20066;-83
2023/10/19 02:40:23;;;;;;;13.98;8.02;;;12.10;99.90;;;;;;5095278;28;20028;-83
2023/10/19 02:42:53;;;;;;;14.07;8.43;;;12.20;99.90;;;;;;5095597;28;20024;-83
2023/10/19 02:45:19;;;;;;;13.32;7.93;;;12.10;99.90;;;;;;5094871;28;20040;-83
2023/10/19 02:47:46;;;;;;;14.38;7.78;;;12.20;99.90;;;;;;5094431;28;20091;-84
2023/10/19 02:50:16;;;;;;;14.00;8.38;;;12.20;99.90;;;;;;5094990;28;20027;-84
2023/10/19 02:52:45;;;;;;;12.82;7.40;;;12.20;99.90;;;;;;5095611;28;20349;-83
2023/10/19 02:55:11;;;;;;;17.13;8.63;;;12.20;99.90;;;;;;5095694;28;20078;-82
2023/10/19 02:57:37;;;;;;;16.75;8.82;;;12.10;99.90;;;;;;5095000;28;20362;-83
2023/10/19 03:00:13;;;;;;;11.90;7.75;;;12.20;99.90;;;;;;5094879;28;20453;-83
2023/10/19 03:02:39;;;;;;;15.10;8.15;;;12.20;99.90;;;;;;5094365;28;20529;-83
2023/10/19 03:05:14;;;;;;;12.27;7.40;;;12.20;99.90;;;;;;5095944;28;20024;-83
2023/10/19 03:07:43;;;;;;;12.90;7.78;;;12.20;99.90;;;;;;5095412;28;20480;-83
2023/10/19 03:10:23;;;;;;;11.98;6.88;;;12.30;99.90;;;;;;5095266;28;20024;-83
2023/10/19 03:12:50;;;;;;;13.35;8.30;;;12.30;99.90;;;;;;5094739;28;20020;-83
2023/10/19 03:15:17;;;;;;;13.60;7.50;;;12.30;99.90;;;;;;5095469;28;20028;-84
2023/10/19 03:17:43;;;;;;;12.20;7.43;;;12.30;99.90;;;;;;5094127;28;20038;-85
2023/10/19 03:20:10;;;;;;;13.32;7.18;;;12.30;99.90;;;;;;5095210;28;20055;-84
2023/10/19 03:22:38;;;;;;;11.43;6.88;;;12.30;99.90;;;;;;5093932;28;20077;-83
2023/10/19 03:27:51;;;;;;;11.00;6.50;;;12.30;99.90;;;;;;5095095;28;20077;-83
2023/10/19 03:30:18;;;;;;;11.27;7.13;;;12.30;99.90;;;;;;5094494;28;20024;-83
2023/10/19 03:32:43;;;;;;;12.10;7.07;;;12.30;99.90;;;;;;5093879;28;20085;-84
2023/10/19 03:35:15;;;;;;;13.05;6.88;;;12.30;99.90;;;;;;5094343;28;20480;-84
2023/10/19 03:37:41;;;;;;;11.23;6.43;;;12.30;99.90;;;;;;5094697;28;20449;-84
2023/10/19 03:40:09;;;;;;;11.15;6.80;;;12.30;99.90;;;;;;5094148;28;20491;-84
2023/10/19 03:42:40;;;;;;;13.35;6.82;;;12.30;99.90;;;;;;5093515;28;20480;-84
2023/10/19 03:45:15;;;;;;;12.63;7.13;;;12.30;99.90;;;;;;5094084;28;20031;-84
2023/10/19 03:47:43;;;;;;;9.63;6.28;;;12.30;99.90;;;;;;5093415;28;20040;-83
2023/10/19 03:50:14;;;;;;;12.30;7.03;;;12.30;99.90;;;;;;5094804;28;20056;-84
2023/10/19 03:52:40;;;;;;;9.82;6.38;;;12.40;99.90;;;;;;5093463;28;20032;-84
2023/10/19 03:55:11;;;;;;;11.95;6.43;;;12.40;99.90;;;;;;5093867;28;20020;-84
2023/10/19 03:57:39;;;;;;;10.55;6.70;;;12.30;99.90;;;;;;5094214;28;20024;-83
2023/10/19 04:00:11;;;;;;;11.57;7.13;;;12.30;99.90;;;;;;5093673;28;20024;-83
2023/10/19 04:02:38;;;;;;;10.90;6.72;;;12.30;99.90;;;;;;5093178;28;20457;-84
2023/10/19 04:05:04;;;;;;;10.90;6.40;;;12.30;99.90;;;;;;5093232;28;20073;-84
2023/10/19 04:07:33;;;;;;;10.60;6.60;;;12.30;99.90;;;;;;5092984;28;20036;-83
2023/10/19 04:12:24;;;;;;;10.23;6.50;;;12.30;99.90;;;;;;5094575;28;20062;-83
2023/10/19 04:14:50;;;;;;;9.90;6.78;;;12.30;99.90;;;;;;5093848;28;20032;-83
2023/10/19 04:17:17;;;;;;;10.13;6.47;;;12.30;99.90;;;;;;5093396;28;20126;-83
2023/10/19 04:19:43;;;;;;;11.73;6.88;;;12.40;99.90;;;;;;5092760;28;20028;-83
2023/10/19 04:22:11;;;;;;;10.35;6.07;;;12.30;99.90;;;;;;5093712;28;20025;-83
2023/10/19 04:24:36;;;;;;;10.77;6.55;;;12.30;99.90;;;;;;5092837;28;20052;-84
2023/10/19 04:27:02;;;;;;;9.75;6.25;;;12.30;99.90;;;;;;5093267;28;20105;-84
2023/10/19 04:29:29;;;;;;;9.27;6.15;;;12.30;99.90;;;;;;5093972;28;20031;-80
2023/10/19 04:31:54;;;;;;;10.25;6.15;;;12.20;99.90;;;;;;5093280;28;20028;-84
2023/10/19 04:34:21;;;;;;;9.48;5.90;;;12.20;99.90;;;;;;5094055;28;20051;-84
2023/10/19 04:36:48;;;;;;;10.40;6.15;;;12.20;99.90;;;;;;5092974;28;20491;-85
2023/10/19 04:39:13;;;;;;;11.10;5.88;;;12.20;99.90;;;;;;5093142;28;20054;-84
2023/10/19 04:41:44;;;;;;;10.90;6.63;;;12.20;99.90;;;;;;5092685;28;20036;-84
2023/10/19 04:44:09;;;;;;;10.90;6.88;;;12.20;99.90;;;;;;5093312;28;20024;-84
2023/10/19 04:46:36;;;;;;;10.45;6.10;;;12.10;99.90;;;;;;5093257;28;20392;-84
2023/10/19 04:49:02;;;;;;;11.95;6.20;;;12.00;99.90;;;;;;5090384;28;20540;-83
2023/10/19 04:51:28;;;;;;;8.68;5.78;;;12.00;99.90;;;;;;5075278;28;20591;-83
2023/10/19 04:53:55;;;;;;;9.98;5.85;;;11.90;99.90;;;;;;5073198;28;20063;-85
2023/10/19 04:56:21;;;;;;;10.02;6.50;;;11.90;99.90;;;;;;5073046;28;20028;-85
2023/10/19 04:58:47;;;;;;;10.95;5.90;;;11.90;99.90;;;;;;5072486;28;20469;-85
2023/10/19 05:01:13;;;;;;;10.75;6.25;;;11.90;99.90;;;;;;5072912;28;20020;-85
2023/10/19 05:03:38;;;;;;;11.07;6.28;;;11.90;99.90;;;;;;5072015;28;20032;-85
2023/10/19 05:06:04;;;;;;;9.90;6.10;;;11.90;99.90;;;;;;5073561;28;20051;-85
2023/10/19 05:08:32;;;;;;;9.23;5.80;;;11.90;99.90;;;;;;5072429;28;20056;-84
2023/10/19 05:11:01;;;;;;;10.15;5.70;;;11.80;99.90;;;;;;5072802;28;20025;-84
2023/10/19 05:13:27;;;;;;;7.63;5.43;;;11.90;99.90;;;;;;5072570;28;20029;-84
2023/10/19 05:15:54;;;;;;;9.05;5.75;;;11.80;99.90;;;;;;5073171;28;20035;-85
2023/10/19 05:18:21;;;;;;;11.23;6.40;;;11.90;99.90;;;;;;5073522;28;20029;-85
2023/10/19 05:20:47;;;;;;;9.10;5.95;;;11.80;99.90;;;;;;5073273;28;20031;-85
2023/10/19 05:23:15;;;;;;;9.77;6.30;;;11.80;99.90;;;;;;5073713;28;20111;-85
2023/10/19 05:25:41;;;;;;;12.23;6.18;;;11.80;99.90;;;;;;5071918;28;20024;-85
2023/10/19 05:28:08;;;;;;;10.98;6.07;;;11.80;99.90;;;;;;5072583;28;20035;-85
2023/10/19 05:30:35;;;;;;;10.30;6.28;;;11.80;99.90;;;;;;5073023;28;20025;-85
2023/10/19 05:33:03;;;;;;;9.43;6.20;;;11.80;99.90;;;;;;5076111;28;20025;-84
2023/10/19 05:35:29;;;;;;;11.32;6.32;;;11.80;99.90;;;;;;5075576;28;20041;-84
2023/10/19 05:37:59;;;;;;;9.38;6.45;;;11.80;99.90;;;;;;5075640;28;20032;-83
2023/10/19 05:40:29;;;;;;;10.05;5.85;;;11.80;99.90;;;;;;5077062;28;20108;-83
2023/10/19 05:42:57;;;;;;;11.10;6.63;;;11.80;99.90;;;;;;5075900;28;20055;-84
2023/10/19 05:45:23;;;;;;;10.88;5.95;;;11.90;99.90;;;;;;5076403;28;20025;-84
2023/10/19 05:47:48;;;;;;;11.95;6.07;;;11.80;99.90;;;;;;5075682;28;20127;-84
2023/10/19 05:50:14;;;;;;;9.25;5.65;;;11.80;99.90;;;;;;5075938;28;20021;-84
2023/10/19 05:52:42;;;;;;;9.75;5.82;;;11.80;99.90;;;;;;5075435;28;20115;-84
2023/10/19 05:55:09;;;;;;;9.65;6.45;;;11.80;99.90;;;;;;5076009;28;20523;-84
2023/10/19 05:57:35;;;;;;;9.55;5.40;;;11.80;99.90;;;;;;5075451;28;20423;-84
2023/10/19 06:00:01;;;;;;;9.45;5.20;;;11.80;99.90;;;;;;5075562;28;20034;-84
2023/10/19 06:02:27;;;;;;;10.65;6.00;;;11.90;99.90;;;;;;5075740;28;20024;-84
2023/10/19 06:04:52;;;;;;;10.25;6.45;;;11.80;99.90;;;;;;5074849;28;20111;-84
2023/10/19 06:07:18;;;;;;;9.35;6.40;;;11.80;99.90;;;;;;5076562;28;20044;-84
2023/10/19 06:09:43;;;;;;;9.02;5.90;;;11.80;99.90;;;;;;5074985;28;20085;-85
2023/10/19 06:12:09;;;;;;;9.38;6.05;;;11.80;99.90;;;;;;5076486;28;20035;-83
2023/10/19 06:14:35;;;;;;;10.23;6.07;;;11.80;99.90;;;;;;5074759;28;20029;-81
2023/10/19 06:17:01;;;;;;;14.30;6.75;;;11.80;99.90;;;;;;5076311;28;20397;-83
2023/10/19 06:19:27;;;;;;;13.00;6.30;;;11.90;99.90;;;;;;5075405;28;20130;-83
2023/10/19 06:21:52;;;;;;;11.05;6.20;;;11.90;99.90;;;;;;5075616;28;20021;-83
2023/10/19 06:24:18;;;;;;;12.38;5.82;;;11.80;99.90;;;;;;5076059;28;20527;-83
2023/10/19 06:26:44;;;;;;;10.55;6.00;;;11.80;99.90;;;;;;5074934;28;20044;-83
2023/10/19 06:29:10;;;;;;;9.90;6.18;;;11.90;99.90;;;;;;5075397;28;20462;-83
2023/10/19 06:31:37;;;;;;;11.23;6.53;;;11.80;99.90;;;;;;5074779;28;20074;-80
2023/10/19 06:34:02;;;;;;;11.23;5.97;;;11.90;99.90;;;;;;5074997;28;20024;-84
2023/10/19 06:36:31;;;;;;;10.27;6.10;;;11.80;99.90;;;;;;5075057;28;20040;-85
2023/10/19 06:38:57;;;;;;;8.95;5.30;;;11.90;99.90;;;;;;5074527;28;20024;-85
2023/10/19 06:41:23;;;;;;;11.43;5.93;;;11.90;99.90;;;;;;5075104;28;20036;-85
2023/10/19 06:43:49;;;;;;;9.65;5.90;;;11.90;99.90;;;;;;5073867;28;20113;-84
2023/10/19 06:46:15;;;;;;;10.75;6.57;;;11.90;99.90;;;;;;5075380;28;20044;-84
2023/10/19 06:48:42;;;;;;;13.77;6.40;;;12.00;99.90;;;;;;5074468;28;20024;-83
2023/10/19 06:51:07;;;;;;;11.05;7.05;;;11.90;99.90;;;;;;5074889;28;20031;-83
2023/10/19 06:53:34;;;;;;;12.32;7.45;;;12.00;99.90;;;;;;5074699;28;20021;-84
2023/10/19 06:56:00;;;;;;;13.45;7.18;;;12.00;99.90;;;;;;5074230;28;20082;-84
2023/10/19 06:58:28;;;;;;;12.40;7.28;;;12.10;99.90;;;;;;5074936;28;20030;-84
2023/10/19 07:00:59;;;;;;;14.27;7.78;;;12.20;99.90;;;;;;5077984;28;20025;-84
2023/10/19 07:03:25;;;;;;;11.82;7.15;;;12.20;99.90;;;;;;5083352;28;20024;-83
2023/10/19 07:05:53;;;;;;;13.45;6.93;;;12.20;99.90;;;;;;5082475;28;20031;-84
2023/10/19 07:08:20;;;;;;;13.27;7.20;;;12.20;99.90;;;;;;5085104;28;20035;-85
2023/10/19 07:10:46;;;;;;;10.75;6.90;;;12.20;99.90;;;;;;5083546;28;20021;-84
2023/10/19 07:13:12;;;;;;;9.52;6.25;;;12.20;99.90;;;;;;5083556;28;20076;-84
2023/10/19 07:15:41;;;;;;;10.50;6.60;;;12.30;99.90;;;;;;5085086;28;20039;-82
2023/10/19 07:18:06;;;;;;;10.38;6.38;;;12.30;99.90;;;;;;5082234;28;20028;-85
2023/10/19 07:20:32;;;;;;;10.95;6.93;;;12.30;99.90;;;;;;5076346;28;20024;-85
2023/10/19 07:25:59;;;;;;;12.73;6.95;;;12.40;99.90;;;;;;5085019;28;20038;-85
2023/10/19 07:28:29;;;;;;;17.55;7.25;;;12.40;99.90;;;;;;5084777;28;20020;-85
2023/10/19 07:30:55;;;;;;;12.77;7.78;;;12.40;99.90;;;;;;5081609;28;20032;-84
2023/10/19 07:33:21;;;;;;;18.63;9.40;;;12.40;99.90;;;;;;5074172;28;20028;-84
2023/10/19 07:35:52;;;;;;;15.80;8.30;;;12.40;99.90;;;;;;5086522;28;20528;-84
2023/10/19 07:38:20;;;;;;;16.00;8.32;;;12.40;99.90;;;;;;5083884;28;20027;-85
2023/10/19 07:40:46;;;;;;;25.05;11.32;;;12.50;99.90;;;;;;5082794;28;20028;-84
2023/10/19 07:43:12;;;;;;;27.33;11.48;;;12.50;99.90;;;;;;5084754;28;20016;-83
2023/10/19 07:45:37;;;;;;;16.75;8.75;;;12.50;99.90;;;;;;5083835;28;20086;-83
2023/10/19 07:48:07;;;;;;;12.65;7.93;;;12.60;99.90;;;;;;5081834;28;20041;-83
2023/10/19 07:50:34;;;;;;;10.68;7.10;;;12.70;99.90;;;;;;5079469;28;20020;-85
2023/10/19 07:53:00;;;;;;;14.50;7.05;;;12.70;99.90;;;;;;5084670;28;20377;-84
2023/10/19 07:55:26;;;;;;;45.75;16.33;;;12.70;99.90;;;;;;5092731;28;20043;-85
2023/10/19 07:57:52;;;;;;;51.33;21.42;;;12.70;99.90;;;;;;5094191;28;20028;-88
2023/10/19 08:00:21;;;;;;;70.80;26.85;;;12.80;99.90;;;;;;5093490;28;20031;-84
2023/10/19 08:02:47;;;;;;;226.63;77.28;;;12.80;99.90;;;;;;5090404;28;20481;-83
2023/10/19 08:05:18;;;;;;;257.92;87.60;;;12.90;99.90;;;;;;5093896;28;20024;-84
2023/10/19 08:07:44;;;;;;;121.70;42.58;;;13.00;99.90;;;;;;5098818;28;20035;-82
2023/10/19 08:10:11;;;;;;;80.80;30.65;;;13.00;99.90;;;;;;5095684;28;20028;-83
2023/10/19 08:12:41;;;;;;;64.70;26.23;;;13.00;99.90;;;;;;5106042;28;20035;-84
2023/10/19 08:15:11;;;;;;;44.30;18.73;;;13.10;99.90;;;;;;5097974;28;20032;-82
2023/10/19 08:17:41;;;;;;;47.88;19.42;;;13.10;99.90;;;;;;5078815;28;20032;-87
2023/10/19 08:20:09;;;;;;;39.88;17.02;;;13.20;99.90;;;;;;5082477;28;20044;-84
2023/10/19 08:22:39;;;;;;;39.70;17.65;;;13.20;99.90;;;;;;5082824;28;20044;-82
2023/10/19 08:25:11;;;;;;;30.27;13.90;;;13.20;99.90;;;;;;5082753;28;20024;-81
2023/10/19 08:27:40;;;;;;;;;;;13.20;99.90;;;;;;5085146;28;20031;-81
2023/10/19 08:30:08;;;;;;;13.52;7.13;;;13.30;99.90;;;;;;5091219;28;19911;-82
2023/10/19 08:32:35;;;;;;;12.73;6.90;;;13.40;99.90;;;;;;5098449;28;20027;-81
2023/10/19 08:35:01;;;;;;;13.15;6.75;;;13.50;99.90;;;;;;5108421;28;20043;-80
2023/10/19 08:37:27;;;;;;;11.32;6.20;;;13.60;99.90;;;;;;5095948;28;20073;-82
2023/10/19 08:39:53;;;;;;;10.43;6.60;;;13.60;99.90;;;;;;5106949;28;20406;-81
2023/10/19 08:42:20;;;;;;;11.90;6.20;;;13.70;99.90;;;;;;5102554;28;20039;-85
2023/10/19 08:44:46;;;;;;;11.13;6.35;;;13.70;99.90;;;;;;5099351;28;20055;-82
2023/10/19 08:47:12;;;;;;;9.88;5.88;;;13.80;99.90;;;;;;5109325;28;20035;-80
2023/10/19 08:49:37;;;;;;;10.20;5.90;;;13.90;99.90;;;;;;5096436;28;20023;-82
2023/10/19 08:52:05;;;;;;;9.48;6.20;;;13.80;99.90;;;;;;5105218;28;20456;-83
2023/10/19 08:54:30;;;;;;;14.02;5.57;;;13.80;99.90;;;;;;5104606;28;20024;-82
2023/10/19 08:56:56;;;;;;;9.55;5.50;;;13.80;99.90;;;;;;5099224;28;20525;-82
2023/10/19 08:59:23;;;;;;;10.77;6.22;;;13.80;99.90;;;;;;5093862;28;20028;-82
2023/10/19 09:01:49;;;;;;;8.68;5.20;;;13.90;99.90;;;;;;5107201;28;20028;-81
2023/10/19 09:04:16;;;;;;;11.75;6.40;;;13.90;99.90;;;;;;5101175;28;20063;-81
2023/10/19 09:06:42;;;;;;;13.40;6.10;;;14.00;99.90;;;;;;5089680;28;20072;-81
2023/10/19 09:09:19;;;;;;;11.10;5.78;;;14.00;99.90;;;;;;5109161;28;20020;-81
2023/10/19 09:11:46;;;;;;;11.02;6.00;;;14.10;99.90;;;;;;5086550;28;20015;-82
2023/10/19 09:14:13;;;;;;;8.70;5.28;;;14.20;99.90;;;;;;5109698;28;20020;-84
2023/10/19 09:16:56;;;;;;;13.15;6.30;;;14.40;99.90;;;;;;5109953;28;20047;-84
2023/10/19 09:19:42;;;;;;;13.05;6.22;;;14.50;99.90;;;;;;5100875;27;20032;-86
2023/10/19 09:22:22;;;;;;;14.02;6.55;;;14.60;99.90;;;;;;5108269;28;20581;-85
2023/10/19 09:24:57;;;;;;;11.75;6.35;;;14.50;99.90;;;;;;5110655;28;20028;-82
2023/10/19 09:27:23;;;;;;;11.60;6.25;;;14.60;99.90;;;;;;5092805;28;20466;-84
2023/10/19 09:29:51;;;;;;;11.02;5.95;;;14.70;99.90;;;;;;5107782;28;20023;-89
2023/10/19 09:32:17;;;;;;;13.85;6.93;;;14.70;99.90;;;;;;5102983;28;20046;-82
2023/10/19 09:34:44;;;;;;;11.32;6.35;;;14.80;99.90;;;;;;5108675;28;20081;-83
2023/10/19 09:37:11;;;;;;;13.18;6.72;;;14.80;99.90;;;;;;5100769;28;20028;-83
2023/10/19 09:39:37;;;;;;;9.85;6.05;;;14.90;99.90;;;;;;5080828;28;20024;-83
2023/10/19 09:42:06;;;;;;;11.90;6.45;;;15.00;99.90;;;;;;5102826;28;20027;-80
2023/10/19 09:44:44;;;;;;;18.55;7.82;;;15.00;99.90;;;;;;5117418;28;20099;-82
2023/10/19 09:47:35;;;;;;;13.02;5.70;;;15.10;99.90;;;;;;5100779;28;20054;-88
2023/10/19 09:50:01;;;;;;;10.63;5.20;;;15.20;99.90;;;;;;5089112;28;20491;-81
2023/10/19 09:52:28;;;;;;;16.10;7.47;;;15.20;99.90;;;;;;5106576;28;20082;-81
2023/10/19 09:55:23;;;;;;;15.68;6.40;;;15.30;99.90;;;;;;5109715;28;20028;-81
2023/10/19 09:57:56;;;;;;;28.05;8.80;;;15.30;99.90;;;;;;5086496;28;20024;-82
2023/10/19 10:00:25;;;;;;;15.35;7.40;;;15.20;99.90;;;;;;5095866;28;20031;-83
2023/10/19 10:02:51;;;;;;;13.82;6.28;;;15.20;99.90;;;;;;5096741;28;20024;-83
2023/10/19 10:05:42;;;;;;;10.98;4.50;;;15.20;99.90;;;;;;5096043;28;20047;-83
2023/10/19 10:08:16;;;;;;;8.00;4.25;;;15.20;99.90;;;;;;5092030;28;20042;-83
2023/10/19 10:10:43;;;;;;;6.78;4.07;;;15.20;99.90;;;;;;5092556;28;20019;-83
2023/10/19 10:13:37;;;;;;;7.85;4.55;;;15.20;99.90;;;;;;5091228;28;20028;-85
2023/10/19 10:16:04;;;;;;;5.30;3.40;;;15.20;99.90;;;;;;5092054;28;20030;-82
2023/10/19 10:18:36;;;;;;;6.18;3.70;;;15.10;99.90;;;;;;5105945;28;20035;-82
2023/10/19 10:21:10;;;;;;;7.68;4.20;;;15.20;99.90;;;;;;5086424;28;20116;-82
2023/10/19 10:23:44;;;;;;;6.60;3.92;;;15.10;99.90;;;;;;5098335;28;20062;-83
2023/10/19 10:26:30;;;;;;;7.90;4.22;;;15.10;99.90;;;;;;5096310;28;20032;-79
2023/10/19 10:29:11;;;;;;;6.00;3.47;;;15.10;99.90;;;;;;5097067;28;20034;-79
2023/10/19 10:31:45;;;;;;;9.27;4.40;;;15.10;99.90;;;;;;5089545;28;20048;-79
2023/10/19 10:34:32;;;;;;;8.10;3.75;;;15.10;99.90;;;;;;5089220;28;20020;-79
2023/10/19 10:37:02;;;;;;;6.18;3.80;;;15.10;99.90;;;;;;5073831;28;20481;-81
2023/10/19 10:39:32;;;;;;;7.45;4.10;;;15.00;99.90;;;;;;5086387;28;20025;-82
2023/10/19 10:41:59;;;;;;;7.35;4.15;;;15.00;99.90;;;;;;5081699;28;20461;-81
2023/10/19 10:44:43;;;;;;;9.90;3.60;;;14.90;99.90;;;;;;5086555;28;20021;-80
2023/10/19 10:47:11;;;;;;;6.80;3.65;;;15.00;99.90;;;;;;5084521;28;20037;-81
2023/10/19 10:50:10;;;;;;;5.13;4.13;;;14.90;99.90;;;;;;5084839;28;20024;-80
2023/10/19 10:52:37;;;;;;;9.02;3.80;;;14.90;99.90;;;;;;5051184;28;20024;-82
2023/10/19 10:55:10;;;;;;;9.77;4.43;;;14.90;99.90;;;;;;5112952;28;20024;-85
2023/10/19 10:57:36;;;;;;;8.55;4.57;;;15.00;99.90;;;;;;5085311;28;20029;-85
2023/10/19 11:00:16;;;;;;;8.50;4.32;;;15.00;99.90;;;;;;5087781;28;20077;-84
2023/10/19 11:02:59;;;;;;;6.30;3.70;;;14.90;99.90;;;;;;5079603;28;20028;-87
2023/10/19 11:05:25;;;;;;;6.60;3.80;;;14.90;99.90;;;;;;5075331;28;20049;-82
2023/10/19 11:08:15;;;;;;;10.32;4.43;;;14.90;99.90;;;;;;5088563;28;20063;-78
2023/10/19 11:10:42;;;;;;;9.05;4.20;;;14.90;99.90;;;;;;5083649;28;20060;-81
2023/10/19 11:13:13;;;;;;;9.82;5.65;;;14.90;99.90;;;;;;5092295;28;20032;-80
2023/10/19 11:15:47;;;;;;;18.48;7.47;;;14.90;99.90;;;;;;5085989;28;20389;-81
2023/10/19 11:18:39;;;;;;;19.42;8.75;;;14.80;99.90;;;;;;5091066;28;20028;-81
2023/10/19 11:21:12;;;;;;;17.30;7.70;;;14.90;99.90;;;;;;5082071;28;20020;-81
2023/10/19 11:23:49;;;;;;;17.17;7.88;;;14.90;99.90;;;;;;5088852;28;20044;-83
2023/10/19 11:26:17;;;;;;;15.95;7.15;;;14.90;99.90;;;;;;5084065;28;20040;-88
2023/10/19 11:28:53;;;;;;;16.13;7.47;;;14.90;99.90;;;;;;5092477;28;20028;-90
2023/10/19 11:31:23;;;;;;;16.92;7.63;;;14.90;99.90;;;;;;5098231;28;20115;-84
2023/10/19 11:33:55;;;;;;;16.17;7.32;;;14.90;99.90;;;;;;5096594;28;20032;-81
2023/10/19 11:36:22;;;;;;;13.73;6.40;;;14.90;99.90;;;;;;5088151;28;20385;-84
2023/10/19 11:38:51;;;;;;;12.32;6.88;;;14.90;99.90;;;;;;5088191;28;20028;-82
2023/10/19 11:41:17;;;;;;;9.68;5.85;;;14.90;99.90;;;;;;5092563;28;20023;-82
2023/10/19 11:43:46;;;;;;;10.63;6.13;;;14.90;99.90;;;;;;5085485;28;20032;-83
2023/10/19 11:46:14;;;;;;;9.80;5.55;;;14.90;99.90;;;;;;5083474;28;20037;-81
2023/10/19 11:48:42;;;;;;;11.63;5.22;;;15.00;99.90;;;;;;5085321;28;20038;-84
2023/10/19 11:51:10;;;;;;;7.85;5.50;;;15.00;99.90;;;;;;5091910;28;20066;-81
2023/10/19 11:53:37;;;;;;;9.57;5.00;;;15.00;99.90;;;;;;5087283;28;20081;-83
2023/10/19 11:56:05;;;;;;;8.82;4.70;;;15.00;99.90;;;;;;5089129;28;20020;-82
2023/10/19 11:58:34;;;;;;;9.60;5.05;;;15.00;99.90;;;;;;5091965;28;20019;-81
2023/10/19 12:01:13;;;;;;;10.93;5.25;;;15.10;99.90;;;;;;5096282;28;20027;-81
2023/10/19 12:03:40;;;;;;;6.80;4.53;;;15.10;99.90;;;;;;5098987;28;20028;-80
2023/10/19 12:06:06;;;;;;;10.55;5.22;;;15.20;99.90;;;;;;5096842;28;20457;-80
2023/10/19 12:08:36;;;;;;;10.40;5.63;;;15.30;99.90;;;;;;5096533;28;20368;-80
2023/10/19 12:11:15;;;;;;;8.38;5.45;;;15.30;99.90;;;;;;5092792;28;20028;-81
2023/10/19 12:13:43;;;;;;;10.00;5.18;;;15.30;99.90;;;;;;5105598;28;20023;-82
2023/10/19 12:16:12;;;;;;;9.52;4.80;;;15.30;99.90;;;;;;5096669;28;20158;-80
2023/10/19 12:18:42;;;;;;;8.95;4.85;;;15.40;99.90;;;;;;5073913;28;20059;-81
2023/10/19 12:21:11;;;;;;;11.30;5.55;;;15.40;99.90;;;;;;5090589;28;20016;-80
2023/10/19 12:23:40;;;;;;;8.40;5.75;;;15.50;99.90;;;;;;5107092;28;20027;-79
2023/10/19 12:26:11;;;;;;;9.40;5.45;;;15.50;99.90;;;;;;5092268;28;20020;-82
2023/10/19 12:28:43;;;;;;;14.93;5.85;;;15.60;99.90;;;;;;5090727;28;20016;-82
2023/10/19 12:31:09;;;;;;;10.50;5.25;;;15.80;99.90;;;;;;5080198;28;20418;-82
2023/10/19 12:33:36;;;;;;;12.93;6.05;;;16.00;99.90;;;;;;5087671;28;20095;-81
2023/10/19 12:36:18;;;;;;;9.45;5.30;;;16.00;99.90;;;;;;5091529;28;20040;-81
2023/10/19 12:38:43;;;;;;;7.88;5.25;;;15.90;99.90;;;;;;5095086;28;20024;-81
2023/10/19 12:41:09;;;;;;;8.95;5.82;;;15.90;99.90;;;;;;5094635;28;20069;-81
2023/10/19 12:43:35;;;;;;;10.85;6.03;;;15.90;99.90;;;;;;5092730;28;20508;-82
2023/10/19 12:46:01;;;;;;;10.52;5.70;;;15.80;99.90;;;;;;5091611;28;20024;-82
2023/10/19 12:48:33;;;;;;;9.35;5.50;;;15.80;99.90;;;;;;5094635;28;20081;-81
2023/10/19 12:50:59;;;;;;;9.73;5.40;;;15.80;99.90;;;;;;5088756;28;20081;-80
2023/10/19 12:53:24;;;;;;;8.45;5.70;;;15.70;99.90;;;;;;5092918;28;20127;-80
2023/10/19 12:55:52;;;;;;;10.27;5.63;;;15.70;99.90;;;;;;5106153;28;20055;-81
2023/10/19 12:58:19;;;;;;;9.20;6.07;;;15.70;99.90;;;;;;5097946;28;20028;-80
2023/10/19 13:00:46;;;;;;;9.60;6.13;;;15.70;99.90;;;;;;5105667;28;20068;-82
2023/10/19 13:03:16;;;;;;;15.02;6.05;;;15.80;99.90;;;;;;5092024;28;20020;-82
2023/10/19 13:05:44;;;;;;;12.07;6.10;;;15.80;99.90;;;;;;5092354;28;20038;-82
2023/10/19 13:08:13;;;;;;;10.25;5.28;;;15.90;99.90;;;;;;5092535;28;20028;-82